createdAt,value
2019-05-10T00:00:19.764Z,10.20
2019-05-10T00:00:49.694Z,10.17
2019-05-10T00:01:19.763Z,10.16
2019-05-10T00:01:49.694Z,10.17
2019-05-10T00:02:19.759Z,10.16
2019-05-10T00:02:50.156Z,10.16
2019-05-10T00:03:19.757Z,10.12
2019-05-10T00:03:49.701Z,10.13
2019-05-10T00:04:19.754Z,10.13
2019-05-10T00:04:49.708Z,10.10
2019-05-10T00:05:19.752Z,10.12
2019-05-10T00:05:49.792Z,10.12
2019-05-10T00:06:19.755Z,10.10
2019-05-10T00:06:49.699Z,10.06
2019-05-10T00:07:19.769Z,10.09
2019-05-10T00:07:52.093Z,10.08
2019-05-10T00:08:19.764Z,10.05
2019-05-10T00:08:49.698Z,10.05
2019-05-10T00:09:19.755Z,10.06
2019-05-10T00:09:49.700Z,10.05
2019-05-10T00:10:19.762Z,10.04
2019-05-10T00:10:49.694Z,10.04
2019-05-10T00:11:19.759Z,10.04
2019-05-10T00:11:49.753Z,10.04
2019-05-10T00:12:19.754Z,10.04
2019-05-10T00:12:49.698Z,10.05
2019-05-10T00:13:20.132Z,10.02
2019-05-10T00:13:49.709Z,10.02
2019-05-10T00:14:19.764Z,10.02
2019-05-10T00:14:49.703Z,10.02
2019-05-10T00:15:19.755Z,10.02
2019-05-10T00:15:49.700Z,10.02
2019-05-10T00:16:19.756Z,10.04
2019-05-10T00:16:49.700Z,10.01
2019-05-10T00:17:19.757Z,10.01
2019-05-10T00:17:49.708Z,10.01
2019-05-10T00:18:22.164Z,10.02
2019-05-10T00:18:49.700Z,9.99
2019-05-10T00:19:19.761Z,9.99
2019-05-10T00:19:49.710Z,9.95
2019-05-10T00:20:19.757Z,9.94
2019-05-10T00:20:49.706Z,9.94
2019-05-10T00:21:19.757Z,9.94
2019-05-10T00:21:49.706Z,9.95
2019-05-10T00:22:19.760Z,9.94
2019-05-10T00:22:49.696Z,9.92
2019-05-10T00:23:19.763Z,9.98
2019-05-10T00:23:50.135Z,9.98
2019-05-10T00:24:19.765Z,9.99
2019-05-10T00:25:02.719Z,10.04
2019-05-10T00:25:19.759Z,10.06
2019-05-10T00:25:51.337Z,10.04
2019-05-10T00:26:19.770Z,10.06
2019-05-10T00:26:49.711Z,10.08
2019-05-10T00:27:19.758Z,10.09
2019-05-10T00:27:49.698Z,10.13
2019-05-10T00:28:19.760Z,10.15
2019-05-10T00:28:52.164Z,10.17
2019-05-10T00:29:19.758Z,10.19
2019-05-10T00:29:49.703Z,10.20
2019-05-10T00:30:19.762Z,10.20
2019-05-10T00:30:49.699Z,10.23
2019-05-10T00:31:19.771Z,10.25
2019-05-10T00:31:49.699Z,10.23
2019-05-10T00:32:19.766Z,10.26
2019-05-10T00:32:49.711Z,10.29
2019-05-10T00:33:19.766Z,10.30
2019-05-10T00:33:49.705Z,10.29
2019-05-10T00:34:20.240Z,10.30
2019-05-10T00:34:49.712Z,10.29
2019-05-10T00:35:19.765Z,10.29
2019-05-10T00:35:49.708Z,10.30
2019-05-10T00:36:19.760Z,10.30
2019-05-10T00:36:49.700Z,10.32
2019-05-10T00:37:19.773Z,10.36
2019-05-10T00:37:49.705Z,10.33
2019-05-10T00:38:19.764Z,10.36
2019-05-10T00:38:49.711Z,10.37
2019-05-10T00:39:22.106Z,10.39
2019-05-10T00:39:49.709Z,10.40
2019-05-10T00:40:19.797Z,10.39
2019-05-10T00:40:49.699Z,10.40
2019-05-10T00:41:19.766Z,10.40
2019-05-10T00:41:49.700Z,10.40
2019-05-10T00:42:19.766Z,10.40
2019-05-10T00:42:49.701Z,10.42
2019-05-10T00:43:19.764Z,10.39
2019-05-10T00:43:49.703Z,10.40
2019-05-10T00:44:19.765Z,10.39
2019-05-10T00:44:50.150Z,10.39
2019-05-10T00:45:19.764Z,10.40
2019-05-10T00:45:49.708Z,10.39
2019-05-10T00:46:19.767Z,10.37
2019-05-10T00:46:49.708Z,10.37
2019-05-10T00:47:19.763Z,10.37
2019-05-10T00:47:49.710Z,10.37
2019-05-10T00:48:19.771Z,10.37
2019-05-10T00:48:49.713Z,10.36
2019-05-10T00:49:19.766Z,10.39
2019-05-10T00:49:52.208Z,10.37
2019-05-10T00:50:19.770Z,10.39
2019-05-10T00:50:49.706Z,10.39
2019-05-10T00:51:19.771Z,10.42
2019-05-10T00:51:49.705Z,10.43
2019-05-10T00:52:19.762Z,10.46
2019-05-10T00:52:49.712Z,10.44
2019-05-10T00:53:19.769Z,10.46
2019-05-10T00:53:49.712Z,10.44
2019-05-10T00:54:19.773Z,10.44
2019-05-10T00:54:49.707Z,10.43
2019-05-10T00:55:20.176Z,10.43
2019-05-10T00:55:49.709Z,10.42
2019-05-10T00:56:19.767Z,10.43
2019-05-10T00:56:49.709Z,10.44
2019-05-10T00:57:19.766Z,10.44
2019-05-10T00:57:49.713Z,10.47
2019-05-10T00:58:19.762Z,10.47
2019-05-10T00:58:49.709Z,10.47
2019-05-10T00:59:19.775Z,10.49
2019-05-10T00:59:49.706Z,10.47
2019-05-10T01:00:22.197Z,10.49
2019-05-10T01:00:49.707Z,10.49
2019-05-10T01:01:19.770Z,10.47
2019-05-10T01:01:49.717Z,10.47
2019-05-10T01:02:19.765Z,10.47
2019-05-10T01:02:49.719Z,10.49
2019-05-10T01:03:19.771Z,10.46
2019-05-10T01:03:49.719Z,10.47
2019-05-10T01:04:19.771Z,10.50
2019-05-10T01:04:49.716Z,10.47
2019-05-10T01:05:19.767Z,10.49
2019-05-10T01:05:50.095Z,10.49
2019-05-10T01:06:19.768Z,10.46
2019-05-10T01:06:49.714Z,10.47
2019-05-10T01:07:19.769Z,10.46
2019-05-10T01:07:49.716Z,10.49
2019-05-10T01:08:19.775Z,10.47
2019-05-10T01:08:49.715Z,10.49
2019-05-10T01:09:19.769Z,10.46
2019-05-10T01:09:49.717Z,10.44
2019-05-10T01:10:19.774Z,10.47
2019-05-10T01:10:52.153Z,10.49
2019-05-10T01:11:19.774Z,10.50
2019-05-10T01:11:49.709Z,10.50
2019-05-10T01:12:19.775Z,10.49
2019-05-10T01:12:49.720Z,10.50
2019-05-10T01:13:19.776Z,10.50
2019-05-10T01:13:49.709Z,10.50
2019-05-10T01:14:19.769Z,10.52
2019-05-10T01:14:49.723Z,10.52
2019-05-10T01:15:19.780Z,10.53
2019-05-10T01:15:49.771Z,10.50
2019-05-10T01:16:20.094Z,10.52
2019-05-10T01:16:49.719Z,10.53
2019-05-10T01:17:19.767Z,10.50
2019-05-10T01:17:49.720Z,10.53
2019-05-10T01:18:19.775Z,10.53
2019-05-10T01:18:49.725Z,10.52
2019-05-10T01:19:19.774Z,10.49
2019-05-10T01:19:49.719Z,10.52
2019-05-10T01:20:19.783Z,10.50
2019-05-10T01:20:49.717Z,10.50
2019-05-10T01:21:22.171Z,10.50
2019-05-10T01:21:49.717Z,10.50
2019-05-10T01:22:19.775Z,10.47
2019-05-10T01:22:49.714Z,10.50
2019-05-10T01:23:19.773Z,10.46
2019-05-10T01:23:49.725Z,10.49
2019-05-10T01:24:19.781Z,10.47
2019-05-10T01:24:49.715Z,10.47
2019-05-10T01:25:33.890Z,10.46
2019-05-10T01:25:49.715Z,10.47
2019-05-10T01:26:19.777Z,10.46
2019-05-10T01:26:50.212Z,10.44
2019-05-10T01:27:19.784Z,10.46
2019-05-10T01:27:49.713Z,10.44
2019-05-10T01:28:19.871Z,10.42
2019-05-10T01:28:49.716Z,10.42
2019-05-10T01:29:19.772Z,10.42
2019-05-10T01:29:49.772Z,10.43
2019-05-10T01:30:19.778Z,10.39
2019-05-10T01:30:49.717Z,10.39
2019-05-10T01:31:19.773Z,10.37
2019-05-10T01:31:52.239Z,10.40
2019-05-10T01:32:19.797Z,10.43
2019-05-10T01:32:49.715Z,10.40
2019-05-10T01:33:19.786Z,10.40
2019-05-10T01:33:49.729Z,10.42
2019-05-10T01:34:19.785Z,10.40
2019-05-10T01:34:49.714Z,10.43
2019-05-10T01:35:19.787Z,10.42
2019-05-10T01:35:49.725Z,10.42
2019-05-10T01:36:19.773Z,10.43
2019-05-10T01:36:49.721Z,10.44
2019-05-10T01:37:20.115Z,10.47
2019-05-10T01:37:49.722Z,10.47
2019-05-10T01:38:19.781Z,10.47
2019-05-10T01:38:49.718Z,10.47
2019-05-10T01:39:19.778Z,10.46
2019-05-10T01:39:49.724Z,10.46
2019-05-10T01:40:19.776Z,10.44
2019-05-10T01:40:49.737Z,10.46
2019-05-10T01:41:19.789Z,10.47
2019-05-10T01:41:49.721Z,10.44
2019-05-10T01:42:22.199Z,10.46
2019-05-10T01:42:49.789Z,10.47
2019-05-10T01:43:19.778Z,10.44
2019-05-10T01:43:49.736Z,10.44
2019-05-10T01:44:19.778Z,10.46
2019-05-10T01:44:49.820Z,10.46
2019-05-10T01:45:19.779Z,10.44
2019-05-10T01:45:49.723Z,10.46
2019-05-10T01:46:19.783Z,10.47
2019-05-10T01:46:49.721Z,10.43
2019-05-10T01:47:19.785Z,10.43
2019-05-10T01:47:50.268Z,10.44
2019-05-10T01:48:19.804Z,10.43
2019-05-10T01:48:49.719Z,10.46
2019-05-10T01:49:19.784Z,10.44
2019-05-10T01:49:49.729Z,10.43
2019-05-10T01:50:19.781Z,10.47
2019-05-10T01:50:49.725Z,10.50
2019-05-10T01:51:19.917Z,10.53
2019-05-10T01:51:49.738Z,10.54
2019-05-10T01:52:19.779Z,10.52
2019-05-10T01:52:52.139Z,10.53
2019-05-10T01:53:19.881Z,10.53
2019-05-10T01:53:49.766Z,10.53
2019-05-10T01:54:19.777Z,10.53
2019-05-10T01:54:49.744Z,10.54
2019-05-10T01:55:19.848Z,10.56
2019-05-10T01:55:52.372Z,10.53
2019-05-10T01:56:19.784Z,10.56
2019-05-10T01:56:49.723Z,10.53
2019-05-10T01:57:19.787Z,10.53
2019-05-10T01:57:49.726Z,10.53
2019-05-10T01:58:20.203Z,10.53
2019-05-10T01:58:49.723Z,10.53
2019-05-10T01:59:19.780Z,10.49
2019-05-10T01:59:49.721Z,10.52
2019-05-10T02:00:19.782Z,10.52
2019-05-10T02:00:49.722Z,10.49
2019-05-10T02:01:19.778Z,10.47
2019-05-10T02:01:49.724Z,10.53
2019-05-10T02:02:19.786Z,10.50
2019-05-10T02:02:49.730Z,10.49
2019-05-10T02:03:22.159Z,10.50
2019-05-10T02:03:49.728Z,10.49
2019-05-10T02:04:19.780Z,10.49
2019-05-10T02:04:49.726Z,10.49
2019-05-10T02:05:19.785Z,10.49
2019-05-10T02:05:49.732Z,10.50
2019-05-10T02:06:19.785Z,10.52
2019-05-10T02:06:49.726Z,10.50
2019-05-10T02:07:19.791Z,10.50
2019-05-10T02:07:49.726Z,10.53
2019-05-10T02:08:19.786Z,10.50
2019-05-10T02:08:50.696Z,10.50
2019-05-10T02:09:19.788Z,10.50
2019-05-10T02:09:49.755Z,10.53
2019-05-10T02:10:19.792Z,10.54
2019-05-10T02:10:49.731Z,10.54
2019-05-10T02:11:19.790Z,10.56
2019-05-10T02:11:49.820Z,10.54
2019-05-10T02:12:19.789Z,10.54
2019-05-10T02:12:49.727Z,10.56
2019-05-10T02:13:19.786Z,10.52
2019-05-10T02:13:52.156Z,10.50
2019-05-10T02:14:19.792Z,10.52
2019-05-10T02:14:49.727Z,10.50
2019-05-10T02:15:19.881Z,10.47
2019-05-10T02:15:49.728Z,10.53
2019-05-10T02:16:19.794Z,10.52
2019-05-10T02:16:49.730Z,10.54
2019-05-10T02:17:19.788Z,10.53
2019-05-10T02:17:49.734Z,10.53
2019-05-10T02:18:19.791Z,10.54
2019-05-10T02:18:49.729Z,10.56
2019-05-10T02:19:20.133Z,10.56
2019-05-10T02:19:49.724Z,10.54
2019-05-10T02:20:19.794Z,10.56
2019-05-10T02:20:49.737Z,10.54
2019-05-10T02:21:19.791Z,10.53
2019-05-10T02:21:49.741Z,10.56
2019-05-10T02:22:19.788Z,10.54
2019-05-10T02:22:49.747Z,10.52
2019-05-10T02:23:19.791Z,10.52
2019-05-10T02:23:49.733Z,10.50
2019-05-10T02:24:22.132Z,10.50
2019-05-10T02:24:49.734Z,10.49
2019-05-10T02:25:19.788Z,10.47
2019-05-10T02:25:49.765Z,10.43
2019-05-10T02:26:19.796Z,10.43
2019-05-10T02:26:49.733Z,10.42
2019-05-10T02:27:19.788Z,10.39
2019-05-10T02:27:49.732Z,10.39
2019-05-10T02:28:19.791Z,10.39
2019-05-10T02:28:49.738Z,10.34
2019-05-10T02:29:19.792Z,10.33
2019-05-10T02:29:50.186Z,10.32
2019-05-10T02:30:19.879Z,10.29
2019-05-10T02:30:49.733Z,10.27
2019-05-10T02:31:21.558Z,10.27
2019-05-10T02:31:49.731Z,10.27
2019-05-10T02:32:19.789Z,10.23
2019-05-10T02:32:49.733Z,10.22
2019-05-10T02:33:19.794Z,10.20
2019-05-10T02:33:49.732Z,10.20
2019-05-10T02:34:19.789Z,10.19
2019-05-10T02:34:52.128Z,10.19
2019-05-10T02:35:19.789Z,10.16
2019-05-10T02:35:49.736Z,10.15
2019-05-10T02:36:19.787Z,10.12
2019-05-10T02:36:49.737Z,10.12
2019-05-10T02:37:19.807Z,10.10
2019-05-10T02:37:49.736Z,10.12
2019-05-10T02:38:19.793Z,10.09
2019-05-10T02:38:49.736Z,10.08
2019-05-10T02:39:19.794Z,10.05
2019-05-10T02:39:49.727Z,10.05
2019-05-10T02:40:20.109Z,10.04
2019-05-10T02:40:49.742Z,10.04
2019-05-10T02:41:19.790Z,10.04
2019-05-10T02:41:49.740Z,10.02
2019-05-10T02:42:19.793Z,9.98
2019-05-10T02:42:49.762Z,9.98
2019-05-10T02:43:19.801Z,9.98
2019-05-10T02:43:49.744Z,9.98
2019-05-10T02:44:19.800Z,9.96
2019-05-10T02:44:49.736Z,9.95
2019-05-10T02:45:22.183Z,9.92
2019-05-10T02:45:49.736Z,9.91
2019-05-10T02:46:19.795Z,9.94
2019-05-10T02:46:49.738Z,9.91
2019-05-10T02:47:19.807Z,9.88
2019-05-10T02:47:49.729Z,9.91
2019-05-10T02:48:19.795Z,9.88
2019-05-10T02:48:49.757Z,9.89
2019-05-10T02:49:19.801Z,9.84
2019-05-10T02:49:49.738Z,9.88
2019-05-10T02:50:19.791Z,9.84
2019-05-10T02:50:50.222Z,9.85
2019-05-10T02:51:19.801Z,9.81
2019-05-10T02:51:49.741Z,9.81
2019-05-10T02:52:19.802Z,9.80
2019-05-10T02:52:49.748Z,9.78
2019-05-10T02:53:19.792Z,9.78
2019-05-10T02:53:50.429Z,9.78
2019-05-10T02:54:19.796Z,9.77
2019-05-10T02:54:49.740Z,9.75
2019-05-10T02:55:19.805Z,9.74
2019-05-10T02:55:52.201Z,9.74
2019-05-10T02:56:30.164Z,9.71
2019-05-10T02:56:49.745Z,9.68
2019-05-10T02:57:19.806Z,9.71
2019-05-10T02:57:49.738Z,9.67
2019-05-10T02:58:19.800Z,9.70
2019-05-10T02:58:49.734Z,9.65
2019-05-10T02:59:19.802Z,9.62
2019-05-10T02:59:49.796Z,9.64
2019-05-10T03:00:19.801Z,9.61
2019-05-10T03:00:49.734Z,9.61
2019-05-10T03:01:20.177Z,9.61
2019-05-10T03:01:49.748Z,9.61
2019-05-10T03:02:19.792Z,9.60
2019-05-10T03:02:49.732Z,9.58
2019-05-10T03:03:19.798Z,9.57
2019-05-10T03:03:49.740Z,9.55
2019-05-10T03:04:19.807Z,9.55
2019-05-10T03:04:49.739Z,9.53
2019-05-10T03:05:19.796Z,9.51
2019-05-10T03:05:49.740Z,9.53
2019-05-10T03:06:22.208Z,9.53
2019-05-10T03:06:49.750Z,9.51
2019-05-10T03:07:19.801Z,9.53
2019-05-10T03:07:49.744Z,9.50
2019-05-10T03:08:19.808Z,9.50
2019-05-10T03:08:49.770Z,9.48
2019-05-10T03:09:19.794Z,9.48
2019-05-10T03:09:49.750Z,9.50
2019-05-10T03:10:19.805Z,9.47
2019-05-10T03:10:49.736Z,9.47
2019-05-10T03:11:19.856Z,9.50
2019-05-10T03:11:50.172Z,9.50
2019-05-10T03:12:20.206Z,9.48
2019-05-10T03:12:49.740Z,9.50
2019-05-10T03:13:19.803Z,9.50
2019-05-10T03:13:49.740Z,9.50
2019-05-10T03:14:19.864Z,9.48
2019-05-10T03:14:49.744Z,9.50
2019-05-10T03:15:19.805Z,9.53
2019-05-10T03:15:49.739Z,9.50
2019-05-10T03:16:19.806Z,9.47
2019-05-10T03:16:52.205Z,9.47
2019-05-10T03:17:19.799Z,9.47
2019-05-10T03:17:49.742Z,9.46
2019-05-10T03:18:19.902Z,9.47
2019-05-10T03:18:49.751Z,9.46
2019-05-10T03:19:19.801Z,9.47
2019-05-10T03:19:49.754Z,9.46
2019-05-10T03:20:19.799Z,9.47
2019-05-10T03:20:49.745Z,9.44
2019-05-10T03:21:19.801Z,9.44
2019-05-10T03:21:49.750Z,9.41
2019-05-10T03:22:20.156Z,9.43
2019-05-10T03:22:49.748Z,9.43
2019-05-10T03:23:19.810Z,9.41
2019-05-10T03:23:49.749Z,9.43
2019-05-10T03:24:19.803Z,9.44
2019-05-10T03:24:49.740Z,9.41
2019-05-10T03:25:19.806Z,9.43
2019-05-10T03:25:49.742Z,9.44
2019-05-10T03:26:19.802Z,9.44
2019-05-10T03:26:51.430Z,9.46
2019-05-10T03:27:22.211Z,9.43
2019-05-10T03:27:49.752Z,9.43
2019-05-10T03:28:19.810Z,9.44
2019-05-10T03:28:49.744Z,9.43
2019-05-10T03:29:19.810Z,9.41
2019-05-10T03:29:49.747Z,9.41
2019-05-10T03:30:19.838Z,9.41
2019-05-10T03:30:49.747Z,9.41
2019-05-10T03:31:19.811Z,9.40
2019-05-10T03:31:49.737Z,9.37
2019-05-10T03:32:19.801Z,9.40
2019-05-10T03:32:50.217Z,9.41
2019-05-10T03:33:19.817Z,9.40
2019-05-10T03:33:55.391Z,9.41
2019-05-10T03:34:19.809Z,9.41
2019-05-10T03:34:49.778Z,9.43
2019-05-10T03:35:19.834Z,9.41
2019-05-10T03:35:49.754Z,9.39
2019-05-10T03:36:19.818Z,9.39
2019-05-10T03:36:49.744Z,9.39
2019-05-10T03:37:19.800Z,9.40
2019-05-10T03:37:52.172Z,9.36
2019-05-10T03:38:19.816Z,9.36
2019-05-10T03:38:49.776Z,9.37
2019-05-10T03:39:19.811Z,9.36
2019-05-10T03:39:49.760Z,9.37
2019-05-10T03:40:19.805Z,9.37
2019-05-10T03:40:49.749Z,9.39
2019-05-10T03:41:19.813Z,9.39
2019-05-10T03:41:49.754Z,9.39
2019-05-10T03:42:19.806Z,9.39
2019-05-10T03:42:49.755Z,9.37
2019-05-10T03:43:20.225Z,9.40
2019-05-10T03:43:49.751Z,9.34
2019-05-10T03:44:19.814Z,9.36
2019-05-10T03:44:49.759Z,9.37
2019-05-10T03:45:19.812Z,9.34
2019-05-10T03:45:49.754Z,9.34
2019-05-10T03:46:19.815Z,9.34
2019-05-10T03:46:49.753Z,9.34
2019-05-10T03:47:19.805Z,9.33
2019-05-10T03:47:49.748Z,9.31
2019-05-10T03:48:22.254Z,9.30
2019-05-10T03:48:49.746Z,9.30
2019-05-10T03:49:19.811Z,9.29
2019-05-10T03:49:49.743Z,9.31
2019-05-10T03:50:19.813Z,9.30
2019-05-10T03:50:49.747Z,9.30
2019-05-10T03:51:19.822Z,9.29
2019-05-10T03:51:49.751Z,9.29
2019-05-10T03:52:19.805Z,9.30
2019-05-10T03:52:52.164Z,9.29
2019-05-10T03:53:19.819Z,9.29
2019-05-10T03:53:50.302Z,9.31
2019-05-10T03:54:19.811Z,9.29
2019-05-10T03:54:49.751Z,9.30
2019-05-10T03:55:19.812Z,9.27
2019-05-10T03:55:49.758Z,9.30
2019-05-10T03:56:19.815Z,9.29
2019-05-10T03:57:09.123Z,9.27
2019-05-10T03:57:19.821Z,9.26
2019-05-10T03:57:49.747Z,9.25
2019-05-10T03:58:19.809Z,9.27
2019-05-10T03:58:52.181Z,9.26
2019-05-10T03:59:19.821Z,9.26
2019-05-10T03:59:49.750Z,9.26
2019-05-10T04:00:19.904Z,9.26
2019-05-10T04:00:49.748Z,9.25
2019-05-10T04:01:19.812Z,9.26
2019-05-10T04:01:49.771Z,9.25
2019-05-10T04:02:19.818Z,9.26
2019-05-10T04:02:49.757Z,9.27
2019-05-10T04:03:19.809Z,9.29
2019-05-10T04:03:49.746Z,9.26
2019-05-10T04:04:20.137Z,9.26
2019-05-10T04:04:49.750Z,9.26
2019-05-10T04:05:19.811Z,9.26
2019-05-10T04:05:49.758Z,9.26
2019-05-10T04:06:19.865Z,9.25
2019-05-10T04:06:49.753Z,9.26
2019-05-10T04:07:20.066Z,9.25
2019-05-10T04:07:49.748Z,9.27
2019-05-10T04:08:19.810Z,9.23
2019-05-10T04:08:49.758Z,9.25
2019-05-10T04:09:22.150Z,9.22
2019-05-10T04:09:49.759Z,9.19
2019-05-10T04:10:20.790Z,9.22
2019-05-10T04:10:49.750Z,9.19
2019-05-10T04:11:19.817Z,9.22
2019-05-10T04:11:49.754Z,9.20
2019-05-10T04:12:19.812Z,9.19
2019-05-10T04:12:49.757Z,9.20
2019-05-10T04:13:19.822Z,9.19
2019-05-10T04:13:49.760Z,9.19
2019-05-10T04:14:19.815Z,9.19
2019-05-10T04:14:50.196Z,9.19
2019-05-10T04:15:19.813Z,9.18
2019-05-10T04:15:49.756Z,9.18
2019-05-10T04:16:19.814Z,9.18
2019-05-10T04:16:49.756Z,9.19
2019-05-10T04:17:19.820Z,9.16
2019-05-10T04:17:50.453Z,9.16
2019-05-10T04:18:19.814Z,9.15
2019-05-10T04:18:49.755Z,9.15
2019-05-10T04:19:19.823Z,9.16
2019-05-10T04:19:52.310Z,9.15
2019-05-10T04:20:19.813Z,9.15
2019-05-10T04:20:49.752Z,9.15
2019-05-10T04:21:19.918Z,9.15
2019-05-10T04:21:49.757Z,9.16
2019-05-10T04:22:19.832Z,9.15
2019-05-10T04:22:49.771Z,9.16
2019-05-10T04:23:19.819Z,9.16
2019-05-10T04:23:49.754Z,9.16
2019-05-10T04:24:19.817Z,9.18
2019-05-10T04:24:49.763Z,9.16
2019-05-10T04:25:20.114Z,9.16
2019-05-10T04:25:49.758Z,9.18
2019-05-10T04:26:19.817Z,9.16
2019-05-10T04:26:49.760Z,9.16
2019-05-10T04:27:31.103Z,9.18
2019-05-10T04:27:49.779Z,9.19
2019-05-10T04:28:19.818Z,9.19
2019-05-10T04:28:49.770Z,9.19
2019-05-10T04:29:19.827Z,9.16
2019-05-10T04:29:49.766Z,9.19
2019-05-10T04:30:22.184Z,9.19
2019-05-10T04:30:49.753Z,9.18
2019-05-10T04:31:19.822Z,9.20
2019-05-10T04:31:49.760Z,9.19
2019-05-10T04:32:19.821Z,9.20
2019-05-10T04:32:49.760Z,9.18
2019-05-10T04:33:19.823Z,9.19
2019-05-10T04:33:49.773Z,9.18
2019-05-10T04:34:19.821Z,9.20
2019-05-10T04:34:49.757Z,9.19
2019-05-10T04:35:19.825Z,9.20
2019-05-10T04:35:50.240Z,9.18
2019-05-10T04:36:19.824Z,9.20
2019-05-10T04:36:49.763Z,9.20
2019-05-10T04:37:19.830Z,9.19
2019-05-10T04:37:49.760Z,9.19
2019-05-10T04:38:19.816Z,9.22
2019-05-10T04:38:49.761Z,9.18
2019-05-10T04:39:19.818Z,9.19
2019-05-10T04:39:49.761Z,9.19
2019-05-10T04:40:19.821Z,9.20
2019-05-10T04:40:52.180Z,9.22
2019-05-10T04:41:19.831Z,9.22
2019-05-10T04:41:49.851Z,9.22
2019-05-10T04:42:19.901Z,9.22
2019-05-10T04:42:49.761Z,9.22
2019-05-10T04:43:19.822Z,9.25
2019-05-10T04:43:49.798Z,9.23
2019-05-10T04:44:19.848Z,9.26
2019-05-10T04:44:53.062Z,9.25
2019-05-10T04:45:19.820Z,9.23
2019-05-10T04:45:49.762Z,9.27
2019-05-10T04:46:20.270Z,9.26
2019-05-10T04:46:49.791Z,9.29
2019-05-10T04:47:19.829Z,9.26
2019-05-10T04:47:49.755Z,9.27
2019-05-10T04:48:19.830Z,9.27
2019-05-10T04:48:49.759Z,9.26
2019-05-10T04:49:19.821Z,9.26
2019-05-10T04:49:49.760Z,9.27
2019-05-10T04:50:19.823Z,9.27
2019-05-10T04:50:49.769Z,9.27
2019-05-10T04:51:22.198Z,9.27
2019-05-10T04:51:49.761Z,9.29
2019-05-10T04:52:19.853Z,9.30
2019-05-10T04:52:49.767Z,9.27
2019-05-10T04:53:19.832Z,9.31
2019-05-10T04:53:49.771Z,9.31
2019-05-10T04:54:19.883Z,9.31
2019-05-10T04:54:49.759Z,9.31
2019-05-10T04:55:19.826Z,9.34
2019-05-10T04:55:49.766Z,9.33
2019-05-10T04:56:19.973Z,9.33
2019-05-10T04:56:50.320Z,9.34
2019-05-10T04:57:19.830Z,9.33
2019-05-10T04:57:51.309Z,9.33
2019-05-10T04:58:19.928Z,9.36
2019-05-10T04:58:49.783Z,9.34
2019-05-10T04:59:19.820Z,9.37
2019-05-10T04:59:49.765Z,9.39
2019-05-10T05:00:19.835Z,9.36
2019-05-10T05:00:49.765Z,9.37
2019-05-10T05:01:19.832Z,9.41
2019-05-10T05:01:52.198Z,9.39
2019-05-10T05:02:22.146Z,9.40
2019-05-10T05:02:49.772Z,9.40
2019-05-10T05:03:19.833Z,9.40
2019-05-10T05:03:49.767Z,9.40
2019-05-10T05:04:19.828Z,9.41
2019-05-10T05:04:49.762Z,9.41
2019-05-10T05:05:19.823Z,9.41
2019-05-10T05:05:49.764Z,9.41
2019-05-10T05:06:19.826Z,9.43
2019-05-10T05:06:49.767Z,9.41
2019-05-10T05:07:20.156Z,9.44
2019-05-10T05:07:49.768Z,9.44
2019-05-10T05:08:19.831Z,9.41
2019-05-10T05:08:49.767Z,9.43
2019-05-10T05:09:19.827Z,9.47
2019-05-10T05:09:49.768Z,9.48
2019-05-10T05:10:19.830Z,9.48
2019-05-10T05:10:49.772Z,9.47
2019-05-10T05:11:19.835Z,9.50
2019-05-10T05:11:49.774Z,9.47
2019-05-10T05:12:22.123Z,9.50
2019-05-10T05:12:49.768Z,9.50
2019-05-10T05:13:19.828Z,9.48
2019-05-10T05:13:49.768Z,9.51
2019-05-10T05:14:19.831Z,9.53
2019-05-10T05:14:49.772Z,9.53
2019-05-10T05:15:19.978Z,9.53
2019-05-10T05:15:49.769Z,9.53
2019-05-10T05:16:19.828Z,9.51
2019-05-10T05:16:49.776Z,9.54
2019-05-10T05:17:19.834Z,9.54
2019-05-10T05:17:50.264Z,9.54
2019-05-10T05:18:19.832Z,9.53
2019-05-10T05:18:49.765Z,9.53
2019-05-10T05:19:19.829Z,9.54
2019-05-10T05:19:49.774Z,9.54
2019-05-10T05:20:19.826Z,9.54
2019-05-10T05:20:49.770Z,9.57
2019-05-10T05:21:19.846Z,9.57
2019-05-10T05:21:49.766Z,9.55
2019-05-10T05:22:19.828Z,9.58
2019-05-10T05:22:52.122Z,9.58
2019-05-10T05:23:19.833Z,9.57
2019-05-10T05:23:49.775Z,9.58
2019-05-10T05:24:22.800Z,9.62
2019-05-10T05:24:49.768Z,9.60
2019-05-10T05:25:21.982Z,9.60
2019-05-10T05:25:49.771Z,9.64
2019-05-10T05:26:19.834Z,9.62
2019-05-10T05:26:49.778Z,9.64
2019-05-10T05:27:19.838Z,9.64
2019-05-10T05:28:05.294Z,9.65
2019-05-10T05:28:23.114Z,9.67
2019-05-10T05:28:49.782Z,9.68
2019-05-10T05:29:19.838Z,9.68
2019-05-10T05:29:49.771Z,9.67
2019-05-10T05:30:19.835Z,9.71
2019-05-10T05:30:49.777Z,9.71
2019-05-10T05:31:19.832Z,9.68
2019-05-10T05:31:53.773Z,9.71
2019-05-10T05:32:19.835Z,9.70
2019-05-10T05:32:49.779Z,9.73
2019-05-10T05:33:22.255Z,9.71
2019-05-10T05:33:49.785Z,9.73
2019-05-10T05:34:19.838Z,9.73
2019-05-10T05:34:49.774Z,9.71
2019-05-10T05:35:19.852Z,9.75
2019-05-10T05:35:49.768Z,9.74
2019-05-10T05:36:19.829Z,9.74
2019-05-10T05:36:49.770Z,9.73
2019-05-10T05:37:19.831Z,9.73
2019-05-10T05:37:49.769Z,9.73
2019-05-10T05:38:19.836Z,9.74
2019-05-10T05:38:50.300Z,9.74
2019-05-10T05:39:19.837Z,9.74
2019-05-10T05:39:49.776Z,9.75
2019-05-10T05:40:19.834Z,9.75
2019-05-10T05:40:49.776Z,9.77
2019-05-10T05:41:19.838Z,9.77
2019-05-10T05:41:51.805Z,9.78
2019-05-10T05:42:22.188Z,9.81
2019-05-10T05:42:49.776Z,9.84
2019-05-10T05:43:19.837Z,9.85
2019-05-10T05:43:52.139Z,9.84
2019-05-10T05:44:20.186Z,9.87
2019-05-10T05:44:49.779Z,9.88
2019-05-10T05:45:19.832Z,9.91
2019-05-10T05:45:49.794Z,9.92
2019-05-10T05:46:19.828Z,9.92
2019-05-10T05:46:49.774Z,9.95
2019-05-10T05:47:19.839Z,9.96
2019-05-10T05:47:49.775Z,10.01
2019-05-10T05:48:21.249Z,9.99
2019-05-10T05:48:51.484Z,10.02
2019-05-10T05:49:20.176Z,10.02
2019-05-10T05:49:49.773Z,10.02
2019-05-10T05:50:19.845Z,10.04
2019-05-10T05:50:49.789Z,10.04
2019-05-10T05:51:19.833Z,10.06
2019-05-10T05:51:49.778Z,10.09
2019-05-10T05:52:19.835Z,10.08
2019-05-10T05:52:49.773Z,10.09
2019-05-10T05:53:22.316Z,10.10
2019-05-10T05:53:49.874Z,10.15
2019-05-10T05:54:22.617Z,10.15
2019-05-10T05:54:52.805Z,10.22
2019-05-10T05:55:22.885Z,10.17
2019-05-10T05:55:49.774Z,10.20
2019-05-10T05:56:19.838Z,10.22
2019-05-10T05:56:50.482Z,10.23
2019-05-10T05:57:22.098Z,10.26
2019-05-10T05:57:49.794Z,10.26
2019-05-10T05:58:26.390Z,10.25
2019-05-10T05:58:49.793Z,10.26
2019-05-10T05:59:23.588Z,10.23
2019-05-10T05:59:50.068Z,10.25
2019-05-10T06:00:19.841Z,10.25
2019-05-10T06:00:52.251Z,10.25
2019-05-10T06:01:25.989Z,10.26
2019-05-10T06:01:49.780Z,10.26
2019-05-10T06:02:19.841Z,10.27
2019-05-10T06:02:49.779Z,10.29
2019-05-10T06:03:27.434Z,10.29
2019-05-10T06:03:49.786Z,10.27
2019-05-10T06:04:19.842Z,10.32
2019-05-10T06:04:52.287Z,10.29
2019-05-10T06:05:33.760Z,10.33
2019-05-10T06:05:49.776Z,10.34
2019-05-10T06:06:23.120Z,10.34
2019-05-10T06:06:53.591Z,10.37
2019-05-10T06:07:19.835Z,10.39
2019-05-10T06:07:52.218Z,10.43
2019-05-10T06:08:24.903Z,10.43
2019-05-10T06:08:54.334Z,10.42
2019-05-10T06:09:19.837Z,10.39
2019-05-10T06:09:49.779Z,10.39
2019-05-10T06:10:20.019Z,10.39
2019-05-10T06:10:55.924Z,10.39
2019-05-10T06:11:22.101Z,10.39
2019-05-10T06:11:49.781Z,10.40
2019-05-10T06:12:19.838Z,10.37
2019-05-10T06:12:52.657Z,10.39
2019-05-10T06:13:23.215Z,10.37
2019-05-10T06:13:49.785Z,10.36
2019-05-10T06:14:19.842Z,10.36
2019-05-10T06:14:52.198Z,10.36
2019-05-10T06:15:22.982Z,10.36
2019-05-10T06:15:49.785Z,10.34
2019-05-10T06:16:51.015Z,10.32
2019-05-10T06:17:23.601Z,10.36
2019-05-10T06:17:56.440Z,10.36
2019-05-10T06:18:19.853Z,10.37
2019-05-10T06:18:49.785Z,10.39
2019-05-10T06:19:27.336Z,10.39
2019-05-10T06:19:49.784Z,10.39
2019-05-10T06:20:19.845Z,10.39
2019-05-10T06:20:49.812Z,10.42
2019-05-10T06:21:24.433Z,10.43
2019-05-10T06:21:57.839Z,10.40
2019-05-10T06:22:19.843Z,10.43
2019-05-10T06:23:05.492Z,10.43
2019-05-10T06:23:19.844Z,10.43
2019-05-10T06:23:49.790Z,10.44
2019-05-10T06:24:19.852Z,10.47
2019-05-10T06:24:52.323Z,10.46
2019-05-10T06:25:37.162Z,10.50
2019-05-10T06:25:52.164Z,10.54
2019-05-10T06:26:24.188Z,10.59
2019-05-10T06:26:49.786Z,10.65
2019-05-10T06:27:19.851Z,10.70
2019-05-10T06:27:49.786Z,10.74
2019-05-10T06:28:26.768Z,10.80
2019-05-10T06:29:01.265Z,10.82
2019-05-10T06:29:20.010Z,10.84
2019-05-10T06:29:49.790Z,10.85
2019-05-10T06:30:19.848Z,10.85
2019-05-10T06:30:49.796Z,10.87
2019-05-10T06:31:19.860Z,10.88
2019-05-10T06:31:49.785Z,10.85
2019-05-10T06:32:22.102Z,10.82
2019-05-10T06:32:53.037Z,10.78
2019-05-10T06:33:19.852Z,10.78